createdAt,value
2022-08-27T03:41:19.311Z,97598.25293429317
2022-08-27T03:44:24.861Z,97593.10317898006
2022-08-27T05:21:38.056Z,97617.69134911968
2022-08-27T05:24:40.582Z,97620.03241298019
2022-08-27T05:27:36.565Z,97620.22074655721
2022-08-27T05:31:17.748Z,97618.86668619046
2022-08-27T05:34:25.442Z,97616.80952259613
2022-08-27T05:37:16.198Z,97620.69858310556
2022-08-27T05:41:19.615Z,97622.2423459951
2022-08-27T05:44:40.735Z,97624.38222487149
2022-08-27T05:47:16.565Z,97631.69007881907
2022-08-27T05:51:25.343Z,97632.77428385698
2022-08-27T05:54:19.965Z,97632.00077878848
2022-08-27T05:57:16.954Z,97634.27182025116
2022-08-27T06:01:21.499Z,97639.4529417737
2022-08-27T06:04:19.290Z,97639.43193642287
2022-08-27T06:07:17.233Z,97638.86503488453
2022-08-27T06:11:17.099Z,97634.84034655744
2022-08-27T06:14:16.919Z,97641.72261760934
2022-08-27T06:17:16.948Z,97642.37047938607
2022-08-27T06:21:21.475Z,97646.11602844905
2022-08-27T06:24:16.613Z,97645.58049327161
2022-08-27T06:27:19.001Z,97646.28874427301
2022-08-27T06:31:18.304Z,97648.05094049973
2022-08-27T06:34:16.002Z,97642.60343914662
2022-08-27T06:37:16.102Z,97644.29764253447
2022-08-27T06:41:23.542Z,97640.27079814539
2022-08-27T06:44:16.774Z,97644.12984645127
2022-08-27T06:47:16.634Z,97645.93811841826
2022-08-27T06:51:19.073Z,97647.60499181799
2022-08-27T06:54:16.425Z,97650.57900417162
2022-08-27T06:57:16.547Z,97647.80030476835
2022-08-27T07:01:18.409Z,97659.13234222835
2022-08-27T07:04:19.003Z,97659.90442273954
2022-08-27T07:07:31.818Z,97654.77632278384
2022-08-27T07:11:16.455Z,97650.2279081486
2022-08-27T07:14:16.766Z,97652.02254183861
2022-08-27T07:17:17.383Z,97649.66715160213
2022-08-27T07:21:16.757Z,97653.23450895128
2022-08-27T07:24:17.061Z,97656.2611367279
2022-08-27T07:27:16.717Z,97660.65532336678
2022-08-27T07:31:20.327Z,97662.59902696271
2022-08-27T07:34:18.087Z,97665.37282982857
2022-08-27T07:37:17.039Z,97663.33209331684
2022-08-27T07:41:15.954Z,97662.49935533357
2022-08-27T08:01:16.762Z,97678.8428235593
2022-08-27T08:04:20.068Z,97674.01240586709
2022-08-27T08:07:16.474Z,97672.31855110636
2022-08-27T08:11:17.546Z,97674.95129735548
2022-08-27T08:14:17.636Z,97672.4889890021
2022-08-27T08:17:17.030Z,97672.91589016723
2022-08-27T08:21:15.783Z,97670.34009034159
2022-08-27T08:24:16.743Z,97674.30285832388
2022-08-27T08:27:16.368Z,97675.4733603444
2022-08-27T08:31:16.674Z,97674.6304051856
2022-08-27T08:34:17.902Z,97674.61395105485
2022-08-27T08:37:16.792Z,97673.81449743817
2022-08-27T08:41:39.329Z,97672.36526079243
2022-08-27T08:44:23.836Z,97672.94067751638
2022-08-27T08:47:21.073Z,97671.26497971469
2022-08-27T08:51:22.008Z,97670.62656075622
2022-08-27T08:54:19.985Z,97672.49812370919
2022-08-27T08:57:22.024Z,97675.71027519798
2022-08-27T09:01:19.948Z,97675.9358456579
2022-08-27T09:04:17.383Z,97672.08433603156
2022-08-27T09:07:28.069Z,97669.46238427945
2022-08-27T09:11:26.949Z,97672.81055275413
2022-08-27T09:14:29.753Z,97678.13693198489
2022-08-27T09:17:16.648Z,97669.5147498389
2022-08-27T09:31:18.969Z,97666.15067026488
2022-08-27T10:11:20.044Z,97641.12872211971
2022-08-27T10:14:25.697Z,97631.68537284822
2022-08-27T10:17:23.060Z,97625.09432656331
2022-08-27T10:21:28.786Z,97627.39209445214
2022-08-27T10:24:26.153Z,97627.20068270732
2022-08-27T10:27:26.774Z,97623.84192948995
2022-08-27T10:31:25.103Z,97619.35703911372
2022-08-27T10:34:31.302Z,97610.29530536383
2022-08-27T10:37:36.820Z,97615.77440301894
2022-08-27T10:41:21.884Z,97606.31576058523
2022-08-27T10:44:37.838Z,97606.39249819603
2022-08-27T10:47:29.918Z,97599.0559159996
2022-08-27T10:51:24.184Z,97608.28930709815
2022-08-27T10:54:26.366Z,97604.18493436718
2022-08-27T11:01:43.028Z,97601.28555449739
2022-08-27T11:04:36.934Z,97604.00744039762
2022-08-27T11:07:37.260Z,97603.82816738791
2022-08-27T11:12:12.746Z,97600.73118632249
2022-08-27T11:14:26.757Z,97592.06025318246
2022-08-27T11:17:24.013Z,97595.62144928356
2022-08-27T11:21:23.121Z,97580.20473702575
2022-08-27T11:24:29.937Z,97570.05641853843
2022-08-27T11:27:20.412Z,97570.4009671332
2022-08-27T11:31:22.672Z,97574.74707347895
2022-08-27T11:34:24.065Z,97576.46164429041
2022-08-27T11:37:33.548Z,97571.62841698248
2022-08-27T11:41:45.395Z,97572.75193788788
2022-08-27T11:44:20.389Z,97584.83570801115
2022-08-27T11:47:20.389Z,97602.39698471017
2022-08-27T11:51:29.937Z,97605.71497055073
2022-08-27T11:54:28.501Z,97616.21641824498
2022-08-27T11:57:28.295Z,97603.82227095103
2022-08-27T12:01:25.387Z,97561.97912914769
2022-08-27T12:04:31.650Z,97561.52458485546
2022-08-27T12:07:32.121Z,97582.83260339698
2022-08-27T12:11:28.749Z,97590.61096329651
2022-08-27T12:14:35.385Z,97590.33070276375
2022-08-27T12:17:25.864Z,97604.79001338067
2022-08-27T12:21:32.585Z,97637.718502526
2022-08-27T12:24:40.701Z,97648.67001331548
2022-08-27T12:27:29.389Z,97646.55010258827
2022-08-27T12:41:25.910Z,97672.10615166751
2022-08-27T12:51:24.079Z,97726.62937681557
2022-08-27T12:54:30.097Z,97717.20333145263
2022-08-27T12:57:26.407Z,97707.34347833782
2022-08-27T13:01:30.986Z,97687.28631265573
2022-08-27T13:04:22.274Z,97678.34706573673
2022-08-27T13:07:25.632Z,97675.90579508369
2022-08-27T13:11:20.815Z,97680.50241334646
2022-08-27T13:14:20.628Z,97682.16251012901
2022-08-27T13:17:19.973Z,97681.97421071543
2022-08-27T13:21:21.193Z,97671.03058539714
2022-08-27T13:24:25.777Z,97665.39434273298
2022-08-27T13:27:24.051Z,97656.01297175816
2022-08-27T13:31:22.221Z,97666.42764142812
2022-08-27T13:34:18.988Z,97678.08359273571
2022-08-27T13:37:23.972Z,97698.6575737931
2022-08-27T13:41:23.465Z,97701.61617246344
2022-08-27T13:44:22.762Z,97687.03630564731
2022-08-27T13:47:19.635Z,97684.95383051284
2022-08-27T13:51:24.540Z,97704.04515682257
2022-08-27T13:54:18.800Z,97723.95296722194
2022-08-27T13:57:24.441Z,97738.73712300333
2022-08-27T14:01:29.974Z,97733.9405969402
2022-08-27T14:04:23.257Z,97736.87044420578
2022-08-27T14:07:33.473Z,97729.21985497791
2022-08-27T14:11:22.954Z,97743.91620109574
2022-08-27T14:14:17.524Z,97753.96473439226
2022-08-27T14:17:24.862Z,97742.41213310989
2022-08-27T14:21:16.244Z,97747.98647554831
2022-08-27T14:24:16.498Z,97753.53985153882
2022-08-27T14:27:17.081Z,97752.30839276392
2022-08-27T14:31:18.497Z,97765.27665502163
2022-08-27T14:34:17.226Z,97765.00535490384
2022-08-27T14:37:17.170Z,97759.68420211032
2022-08-27T14:41:16.428Z,97743.99544177066
2022-08-27T14:44:16.676Z,97736.95776008366
2022-08-27T14:47:16.550Z,97723.77206663777
2022-08-27T14:51:22.684Z,97725.46852411231
2022-08-27T14:54:16.377Z,97729.51341136129
2022-08-27T14:57:16.352Z,97725.9790741797
2022-08-27T15:31:36.691Z,97732.15904080558
2022-08-27T15:34:36.566Z,97732.69823603505
2022-08-27T15:37:36.762Z,97729.4416944349
2022-08-27T15:41:17.005Z,97744.16281666499
2022-08-27T15:44:16.315Z,97753.24631485241
2022-08-27T15:47:19.535Z,97751.63930665486
2022-08-27T15:51:21.878Z,97748.72814577351
2022-08-27T15:54:16.775Z,97755.45796688017
2022-08-27T15:57:18.100Z,97759.9900197291
2022-08-27T16:01:23.387Z,97760.96352350344
2022-08-27T16:04:18.233Z,97757.90772894424
2022-08-27T16:07:17.772Z,97757.39680758395
2022-08-27T16:11:16.860Z,97764.4021152502
2022-08-27T16:14:17.164Z,97766.60274502101
2022-08-27T16:17:17.130Z,97767.21383920706
2022-08-27T16:21:16.799Z,97775.64272569377
2022-08-27T16:24:17.325Z,97775.57046145886
2022-08-27T16:27:16.794Z,97775.39028942875
2022-08-27T16:31:17.334Z,97773.9541424067
2022-08-27T16:34:23.446Z,97774.89479419848
2022-08-27T16:37:16.975Z,97762.87555474941
2022-08-27T16:41:16.785Z,97765.62097346451
2022-08-27T16:44:17.802Z,97758.30086545376
2022-08-27T16:47:16.493Z,97749.01154960874
2022-08-27T16:51:18.678Z,97747.1322229604
2022-08-27T16:54:17.416Z,97753.93941888522
2022-08-27T16:57:16.723Z,97762.28947021007
2022-08-27T17:01:20.118Z,97763.26528073922
2022-08-27T17:04:26.537Z,97765.64597628947
2022-08-27T17:07:17.038Z,97766.57729048192
2022-08-27T17:11:18.887Z,97766.84120635407
2022-08-27T17:14:16.980Z,97767.11046006922
2022-08-27T17:17:17.790Z,97762.25767050672
2022-08-27T17:21:20.264Z,97754.74742804817
2022-08-27T17:24:16.672Z,97746.3222547646
2022-08-27T17:27:20.412Z,97751.74355915756
2022-08-27T17:31:27.115Z,97746.44368772519
2022-08-27T17:34:22.258Z,97746.41383418241
2022-08-27T17:37:16.740Z,97743.3567840394
2022-08-27T17:41:24.209Z,97742.89627019834
2022-08-27T17:44:22.413Z,97746.29527538817
2022-08-27T17:47:16.840Z,97740.37146339938
2022-08-27T17:51:17.035Z,97738.82194592069
2022-08-27T17:54:26.057Z,97736.33385436363
2022-08-27T17:57:19.104Z,97737.30204809217
2022-08-27T18:01:20.224Z,97731.40434687398
2022-08-27T18:04:17.665Z,97735.60864918595
2022-08-27T18:07:17.261Z,97731.54049839274
2022-08-27T18:11:17.168Z,97738.48378525961
2022-08-27T18:14:18.708Z,97750.87974716417
2022-08-27T18:17:16.764Z,97764.80853848305
2022-08-27T18:21:25.455Z,97762.16818307411
2022-08-27T18:24:17.074Z,97767.50075036535
2022-08-27T18:27:17.021Z,97769.79147320866
2022-08-27T18:31:18.985Z,97775.09370845987
2022-08-27T18:34:20.710Z,97781.7982419917
2022-08-27T18:37:16.844Z,97779.65660568615
2022-08-27T18:41:17.870Z,97778.62183596923
2022-08-27T18:44:17.537Z,97776.49733638798
2022-08-27T18:47:16.648Z,97781.15227118826
2022-08-27T18:51:17.275Z,97783.30745976925
2022-08-27T18:54:16.449Z,97791.42780143236
2022-08-27T18:57:16.174Z,97791.44810970737
2022-08-27T19:01:19.513Z,97803.11878100978
2022-08-27T19:04:19.018Z,97805.87292048354
2022-08-27T19:07:16.667Z,97811.80621931456
2022-08-27T19:11:17.060Z,97822.65317976922
2022-08-27T19:14:16.884Z,97827.11970535977
2022-08-27T19:17:23.983Z,97835.0239978378
2022-08-27T19:21:16.588Z,97833.6318462326
2022-08-27T19:24:17.747Z,97837.63591711063
2022-08-27T19:27:23.027Z,97846.67382392279
2022-08-27T19:31:16.511Z,97852.8008061599
2022-08-27T19:34:17.038Z,97862.77604076827
2022-08-27T19:37:21.992Z,97870.76033220705
2022-08-27T19:41:17.877Z,97875.86312975141
2022-08-27T19:44:16.623Z,97874.82919028828
2022-08-27T19:47:21.336Z,97872.94563524099
2022-08-27T19:51:18.277Z,97868.99106606172
2022-08-27T19:54:17.179Z,97862.94795040818
2022-08-27T19:57:16.798Z,97861.3782261394
2022-08-27T20:01:16.093Z,97859.398207478
2022-08-27T20:04:16.154Z,97861.7396230606
2022-08-27T20:07:16.369Z,97864.53893911395
2022-08-27T20:11:17.300Z,97869.36827794819
2022-08-27T20:14:17.524Z,97872.85731262379
2022-08-27T20:17:21.809Z,97867.14452922207
2022-08-27T20:21:15.996Z,97862.07884548933
2022-08-27T20:24:16.871Z,97864.32735343529
2022-08-27T20:27:16.091Z,97861.56608038537
2022-08-27T20:31:18.206Z,97856.7415968282
2022-08-27T20:34:16.531Z,97852.12413387893
2022-08-27T20:37:17.400Z,97856.66860457827
2022-08-27T20:41:16.257Z,97862.13951792933
2022-08-27T20:44:17.050Z,97860.78173423138
2022-08-27T20:47:17.842Z,97867.56875527235
2022-08-27T20:51:17.342Z,97868.68357237494
2022-08-27T20:54:16.615Z,97869.31308164954
2022-08-27T20:57:16.544Z,97867.74203257033
2022-08-27T21:01:16.636Z,97859.13369121264
2022-08-27T21:04:16.501Z,97854.38460109087
2022-08-27T21:07:19.803Z,97852.54817548618
2022-08-27T21:11:17.039Z,97849.00810848082
2022-08-27T21:14:16.315Z,97847.1316560216
2022-08-27T21:17:16.470Z,97844.74223820052
2022-08-27T21:21:16.002Z,97844.79562920834
2022-08-27T21:24:16.757Z,97845.44105858811
2022-08-27T21:27:18.019Z,97843.86977849244
2022-08-27T21:31:17.174Z,97834.05475748306
2022-08-27T21:34:16.499Z,97836.04158985884
2022-08-27T21:37:17.711Z,97839.17550110683
2022-08-27T21:41:17.414Z,97834.59141886442
2022-08-27T21:44:16.828Z,97824.74540625881
2022-08-27T21:47:16.748Z,97822.4782306749
2022-08-27T21:51:24.335Z,97826.07044018368
2022-08-27T21:54:16.713Z,97820.64145307963
2022-08-27T21:57:16.706Z,97820.19206286648
2022-08-27T22:01:19.050Z,97829.6206025393
2022-08-27T22:04:17.064Z,97829.31575326381
2022-08-27T22:07:17.473Z,97831.36348372135
2022-08-27T22:11:23.323Z,97832.29495997525
2022-08-27T22:14:16.736Z,97833.65339918948
2022-08-27T22:17:16.657Z,97833.77443366883
2022-08-27T22:21:16.311Z,97825.71276417162
2022-08-27T22:24:16.586Z,97820.81645645094
2022-08-27T22:27:16.498Z,97826.48663916795
2022-08-27T22:31:16.183Z,97831.18178692134
2022-08-27T22:34:16.153Z,97831.73548724207
2022-08-27T22:37:16.200Z,97833.7486558576
2022-08-27T22:41:18.503Z,97837.89576639542
2022-08-27T22:44:16.537Z,97845.65600535576
2022-08-27T22:47:16.339Z,97854.5087743642
2022-08-27T22:51:16.047Z,97860.54891882521
2022-08-27T22:54:16.829Z,97861.74041543811
2022-08-27T22:57:16.515Z,97863.17791592657
2022-08-27T23:01:18.824Z,97861.46278464967
2022-08-27T23:04:16.521Z,97859.3758787881
2022-08-27T23:07:16.308Z,97860.89872837724
2022-08-27T23:11:16.043Z,97865.47289532245
2022-08-27T23:14:16.216Z,97868.46706040548
2022-08-27T23:17:16.236Z,97865.4258224199
2022-08-27T23:21:17.380Z,97862.73174200373
2022-08-27T23:24:16.565Z,97859.8815340803
2022-08-27T23:27:32.337Z,97860.58427452204
2022-08-27T23:31:16.224Z,97862.4343321267
2022-08-27T23:34:16.957Z,97867.19038454346
2022-08-27T23:37:16.011Z,97866.15849076795
2022-08-27T23:41:16.379Z,97863.91987212007
2022-08-27T23:44:16.355Z,97867.16696464161
2022-08-27T23:47:16.933Z,97867.06174433287
2022-08-27T23:51:16.856Z,97867.66263303989
2022-08-27T23:54:16.706Z,97867.60611493413
2022-08-27T23:57:16.996Z,97865.39286938107
